Time;durP1;ratioP1;P1;durP2;ratioP2;P2;SDS_P1;SDS_P2;PMS_P1;PMS_P2;Temp;Humidity;BMP_temperature;BMP_pressure;BME280_temperature;BME280_humidity;BME280_pressure;Samples;Min_cycle;Max_cycle;Signal;HPM_P1;HPM_P2
2022/01/16 00:06:10;;;;;;;94.30;33.38;;;2.20;99.90;;;;;;5137083;27;20042;-76
2022/01/16 00:08:35;;;;;;;90.90;32.80;;;2.30;99.90;;;;;;5121321;27;20049;-76
2022/01/16 00:11:01;;;;;;;98.97;34.42;;;2.20;99.90;;;;;;5137951;27;20492;-76
2022/01/16 00:13:27;;;;;;;73.18;32.28;;;2.20;99.90;;;;;;5155971;27;20121;-76
2022/01/16 00:15:53;;;;;;;90.65;35.53;;;2.40;99.90;;;;;;5138204;27;20046;-76
2022/01/16 00:18:24;;;;;;;96.40;35.42;;;2.40;99.90;;;;;;5120971;27;20049;-76
2022/01/16 00:20:51;;;;;;;98.03;36.55;;;2.20;99.90;;;;;;5137268;27;20080;-76
2022/01/16 00:23:25;;;;;;;84.88;35.03;;;2.40;99.90;;;;;;5137499;27;20049;-76
2022/01/16 00:25:53;;;;;;;85.28;34.55;;;2.20;99.90;;;;;;5137909;27;20047;-76
2022/01/16 00:28:19;;;;;;;84.20;36.58;;;2.20;99.90;;;;;;5137371;27;20078;-76
2022/01/16 00:30:45;;;;;;;89.35;35.00;;;2.50;99.90;;;;;;5156648;27;20055;-76
2022/01/16 00:33:11;;;;;;;81.82;36.15;;;2.40;99.90;;;;;;5156650;27;20054;-76
2022/01/16 00:35:37;;;;;;;79.63;34.72;;;3.00;99.90;;;;;;5136847;27;20098;-76
2022/01/16 00:38:04;;;;;;;78.13;34.55;;;2.50;99.90;;;;;;5137719;27;20761;-76
2022/01/16 00:40:30;;;;;;;84.00;35.50;;;2.50;99.90;;;;;;5156411;27;20409;-76
2022/01/16 00:42:57;;;;;;;82.72;36.47;;;2.20;99.90;;;;;;5155520;27;20039;-76
2022/01/16 00:45:26;;;;;;;86.93;37.13;;;2.90;99.90;;;;;;5133743;27;20059;-76
2022/01/16 00:47:52;;;;;;;78.35;36.13;;;2.20;99.90;;;;;;5134369;27;20185;-76
2022/01/16 00:50:18;;;;;;;85.63;34.50;;;2.50;99.90;;;;;;5133631;27;20055;-76
2022/01/16 00:52:44;;;;;;;86.72;34.85;;;2.80;99.90;;;;;;5148441;27;20378;-76
2022/01/16 00:55:10;;;;;;;76.65;33.45;;;2.80;99.90;;;;;;5136387;27;20046;-76
2022/01/16 00:57:36;;;;;;;82.68;37.30;;;2.20;99.90;;;;;;5137199;27;20043;-76
2022/01/16 01:00:04;;;;;;;78.88;35.10;;;2.20;99.90;;;;;;5137172;27;20057;-76
2022/01/16 01:02:30;;;;;;;85.47;35.38;;;2.20;99.90;;;;;;5154844;27;20053;-76
2022/01/16 01:04:55;;;;;;;84.03;36.50;;;2.20;99.90;;;;;;5155807;27;20035;-76
2022/01/16 01:07:21;;;;;;;85.43;36.47;;;2.80;99.90;;;;;;5136926;27;20042;-76
2022/01/16 01:09:47;;;;;;;79.88;33.53;;;2.40;99.90;;;;;;5136491;27;20085;-76
2022/01/16 01:12:24;;;;;;;91.93;36.90;;;2.80;99.90;;;;;;5137082;27;20438;-76
2022/01/16 01:15:07;;;;;;;92.85;36.42;;;3.00;99.90;;;;;;5137391;27;20385;-76
2022/01/16 01:17:36;;;;;;;81.63;35.38;;;2.30;99.90;;;;;;5154836;27;20103;-76
2022/01/16 01:20:04;;;;;;;94.72;36.65;;;2.30;99.90;;;;;;5136644;27;20053;-76
2022/01/16 01:22:30;;;;;;;80.05;35.83;;;2.30;99.90;;;;;;5136986;27;20153;-76
2022/01/16 01:24:56;;;;;;;82.65;35.40;;;2.30;99.90;;;;;;5135915;27;20533;-76
2022/01/16 01:27:23;;;;;;;86.63;36.10;;;2.40;99.90;;;;;;5137176;27;20043;-76
2022/01/16 01:30:02;;;;;;;87.65;35.75;;;2.30;99.90;;;;;;5136975;27;20051;-76
2022/01/16 01:32:30;;;;;;;94.45;38.22;;;2.30;99.90;;;;;;5119045;27;20054;-76
2022/01/16 01:34:55;;;;;;;93.65;36.35;;;2.30;99.90;;;;;;5137003;27;20046;-76
2022/01/16 01:37:21;;;;;;;94.97;36.25;;;2.30;99.90;;;;;;5136619;27;20039;-76
2022/01/16 01:39:47;;;;;;;101.55;39.30;;;3.00;99.90;;;;;;5136132;27;20047;-76
2022/01/16 01:42:14;;;;;;;100.18;37.15;;;2.40;99.90;;;;;;5136844;27;20046;-76
2022/01/16 01:52:56;;;;;;;110.25;39.88;;;2.70;99.90;;;;;;5131955;28;20086;-76
2022/01/16 01:55:24;;;;;;;117.65;39.22;;;2.40;99.90;;;;;;5133181;28;20093;-76
2022/01/16 01:57:49;;;;;;;118.88;39.30;;;2.40;99.90;;;;;;5133059;28;20043;-76
2022/01/16 02:00:19;;;;;;;118.03;38.72;;;2.40;99.90;;;;;;5133614;28;20116;-76
2022/01/16 02:05:35;;;;;;;112.13;37.25;;;2.70;99.90;;;;;;5132281;27;20059;-76
2022/01/16 02:08:04;;;;;;;104.85;37.30;;;2.50;99.90;;;;;;5137633;27;20126;-76
2022/01/16 02:10:30;;;;;;;112.60;38.13;;;2.30;99.90;;;;;;5138626;27;20075;-76
2022/01/16 02:13:01;;;;;;;133.20;36.90;;;2.40;99.90;;;;;;5136357;27;20483;-76
2022/01/16 02:34:53;;;;;;;97.10;29.60;;;2.40;99.90;;;;;;5137586;27;20502;-75
2022/01/16 02:37:23;;;;;;;133.43;35.28;;;2.30;99.90;;;;;;5136459;27;20047;-76
2022/01/16 02:39:51;;;;;;;149.20;38.50;;;2.30;99.90;;;;;;5119627;27;20072;-76
2022/01/16 02:42:18;;;;;;;168.52;41.97;;;2.30;99.90;;;;;;5135942;27;20107;-76
2022/01/16 02:44:50;;;;;;;156.73;42.42;;;3.00;99.90;;;;;;5136394;27;20051;-76
2022/01/16 02:47:20;;;;;;;115.68;37.30;;;2.40;99.90;;;;;;5136509;27;20120;-76
2022/01/16 02:49:48;;;;;;;141.20;37.63;;;2.30;99.90;;;;;;5118868;27;20150;-76
2022/01/16 02:52:19;;;;;;;124.40;35.83;;;2.30;99.90;;;;;;5136489;27;20043;-76
2022/01/16 02:54:49;;;;;;;138.80;37.95;;;2.40;99.90;;;;;;5135826;27;20051;-76
2022/01/16 02:57:17;;;;;;;126.57;38.00;;;2.60;99.90;;;;;;5136665;27;20055;-76
2022/01/16 02:59:48;;;;;;;136.85;38.55;;;2.50;99.90;;;;;;5137294;27;20122;-75
2022/01/16 03:02:15;;;;;;;131.45;39.25;;;2.90;99.90;;;;;;5135421;27;20043;-76
2022/01/16 03:04:41;;;;;;;129.98;37.05;;;2.30;99.90;;;;;;5136137;27;20130;-76
2022/01/16 03:07:07;;;;;;;159.73;39.05;;;3.10;99.90;;;;;;5137076;27;20118;-75
2022/01/16 03:12:19;;;;;;;129.43;37.92;;;2.40;99.90;;;;;;5115474;27;20431;-76
2022/01/16 03:14:45;;;;;;;140.32;38.30;;;2.80;99.90;;;;;;5135857;27;20039;-76
2022/01/16 03:17:11;;;;;;;132.27;38.60;;;2.40;99.90;;;;;;5117447;27;20047;-76
2022/01/16 03:22:22;;;;;;;113.70;29.60;;;2.40;99.90;;;;;;5136740;27;20051;-76
2022/01/16 03:24:48;;;;;;;153.85;41.35;;;2.40;99.90;;;;;;5134675;27;20054;-76
2022/01/16 03:27:17;;;;;;;150.77;39.97;;;2.40;99.90;;;;;;5135812;27;20051;-76
2022/01/16 03:29:46;;;;;;;137.25;38.95;;;3.20;99.90;;;;;;5118571;27;20074;-76
2022/01/16 03:32:15;;;;;;;140.40;38.75;;;2.50;99.90;;;;;;5134750;27;20058;-76
2022/01/16 03:34:41;;;;;;;137.52;39.58;;;2.50;99.90;;;;;;5136969;27;20394;-76
2022/01/16 03:37:07;;;;;;;168.68;42.78;;;2.50;99.90;;;;;;5134729;27;20039;-76
2022/01/16 03:39:33;;;;;;;140.27;38.80;;;2.50;99.90;;;;;;5135730;27;20047;-76
2022/01/16 03:42:00;;;;;;;153.43;41.97;;;2.50;99.90;;;;;;5135382;27;20057;-76
2022/01/16 03:44:27;;;;;;;150.23;39.03;;;2.50;99.90;;;;;;5137412;27;20046;-76
2022/01/16 03:46:53;;;;;;;155.52;43.00;;;3.20;99.90;;;;;;5138988;27;20126;-76
2022/01/16 03:49:22;;;;;;;148.82;40.78;;;2.50;99.90;;;;;;5138724;27;20038;-76
2022/01/16 03:51:50;;;;;;;154.57;41.08;;;2.60;99.90;;;;;;5137544;27;20038;-76
2022/01/16 03:54:18;;;;;;;180.43;44.10;;;2.60;99.90;;;;;;5138609;27;20074;-76
2022/01/16 03:56:45;;;;;;;181.60;43.13;;;3.50;99.90;;;;;;5138784;27;20363;-76
2022/01/16 03:59:11;;;;;;;189.82;45.47;;;3.30;99.90;;;;;;5137718;27;20050;-76
2022/01/16 04:01:37;;;;;;;197.13;47.15;;;2.60;99.90;;;;;;5138574;27;20053;-76
2022/01/16 04:04:04;;;;;;;174.23;43.55;;;2.90;99.90;;;;;;5121371;27;20035;-76
2022/01/16 04:06:30;;;;;;;171.45;43.90;;;2.60;99.90;;;;;;5137161;27;20485;-76
2022/01/16 04:08:56;;;;;;;195.70;45.35;;;2.80;99.90;;;;;;5138658;27;20046;-76
2022/01/16 04:11:26;;;;;;;170.20;44.53;;;2.90;99.90;;;;;;5156887;27;20047;-76
2022/01/16 04:13:54;;;;;;;192.18;47.85;;;2.70;99.90;;;;;;5155849;27;20072;-76
2022/01/16 04:16:23;;;;;;;179.27;44.70;;;2.80;99.90;;;;;;5121140;27;20068;-76
2022/01/16 04:18:52;;;;;;;198.93;48.88;;;2.80;99.90;;;;;;5156863;27;20058;-76
2022/01/16 04:21:19;;;;;;;180.27;47.65;;;2.80;99.90;;;;;;5137122;27;20043;-76
2022/01/16 04:23:45;;;;;;;177.23;44.55;;;3.00;99.90;;;;;;5151827;27;20054;-76
2022/01/16 04:26:11;;;;;;;195.18;47.35;;;3.70;99.90;;;;;;5154753;27;20039;-76
2022/01/16 04:28:37;;;;;;;197.90;45.70;;;3.80;99.90;;;;;;5154997;27;20151;-76
2022/01/16 04:31:03;;;;;;;214.13;50.20;;;3.10;99.90;;;;;;5154935;27;20390;-76
2022/01/16 04:33:29;;;;;;;203.27;47.85;;;2.90;99.90;;;;;;5137222;27;20049;-76
2022/01/16 04:35:55;;;;;;;190.07;47.65;;;2.90;99.90;;;;;;5155080;27;20466;-76
2022/01/16 04:38:22;;;;;;;216.05;46.58;;;2.90;99.90;;;;;;5122377;27;20428;-76
2022/01/16 04:43:47;;;;;;;192.77;47.33;;;3.10;99.90;;;;;;5156273;27;20041;-76
2022/01/16 04:46:33;;;;;;;243.25;49.58;;;3.30;99.90;;;;;;5155880;27;20512;-76
2022/01/16 04:49:00;;;;;;;208.73;48.70;;;3.20;99.90;;;;;;5119787;27;20049;-76
2022/01/16 04:51:27;;;;;;;236.05;51.58;;;3.10;99.90;;;;;;5120085;27;20086;-76
2022/01/16 04:53:54;;;;;;;219.60;51.20;;;3.10;99.90;;;;;;5155138;27;20126;-76
2022/01/16 04:56:20;;;;;;;228.07;51.13;;;3.10;99.90;;;;;;5136820;27;20118;-76
2022/01/16 04:58:46;;;;;;;207.40;49.28;;;3.70;99.90;;;;;;5154646;27;20043;-76
2022/01/16 05:01:13;;;;;;;189.77;46.42;;;3.10;99.90;;;;;;5154709;27;20046;-76
2022/01/16 05:03:39;;;;;;;233.02;51.63;;;3.10;99.90;;;;;;5141789;27;20057;-76
2022/01/16 05:06:07;;;;;;;244.70;51.03;;;3.20;99.90;;;;;;5155858;27;20043;-76
2022/01/16 05:08:33;;;;;;;267.77;53.30;;;3.70;99.90;;;;;;5153495;27;20085;-76
2022/01/16 05:10:59;;;;;;;231.18;50.55;;;3.50;99.90;;;;;;5154418;27;20078;-76
2022/01/16 05:18:42;;;;;;;218.98;48.65;;;3.20;99.90;;;;;;5137094;27;20043;-76
2022/01/16 05:21:09;;;;;;;232.45;49.40;;;3.20;99.90;;;;;;5119853;27;20107;-76
2022/01/16 05:23:35;;;;;;;240.40;51.65;;;3.30;99.90;;;;;;5154459;27;20569;-76
2022/01/16 05:26:03;;;;;;;233.00;52.33;;;3.20;99.90;;;;;;5154116;27;20121;-76
2022/01/16 05:28:29;;;;;;;248.23;53.33;;;3.40;99.90;;;;;;5154416;27;20511;-76
2022/01/16 05:30:55;;;;;;;204.15;49.72;;;3.20;99.90;;;;;;5153570;27;20070;-76
2022/01/16 05:33:20;;;;;;;232.27;51.83;;;4.00;99.90;;;;;;5154299;27;20095;-76
2022/01/16 05:35:46;;;;;;;236.60;53.97;;;3.30;99.90;;;;;;5136810;27;20126;-76
2022/01/16 05:38:12;;;;;;;244.05;50.00;;;3.30;99.90;;;;;;5147670;27;20097;-76
2022/01/16 05:40:39;;;;;;;263.23;55.25;;;3.30;99.90;;;;;;5154132;27;20046;-76
2022/01/16 05:43:05;;;;;;;246.45;53.03;;;3.40;99.90;;;;;;5154371;27;20423;-76
2022/01/16 05:45:32;;;;;;;248.50;53.72;;;3.80;99.90;;;;;;5154022;27;20090;-76
2022/01/16 05:47:57;;;;;;;260.13;55.03;;;3.40;99.90;;;;;;5154130;27;20082;-76
2022/01/16 05:50:24;;;;;;;241.32;53.35;;;3.90;99.90;;;;;;5154090;27;20049;-76
2022/01/16 05:52:50;;;;;;;227.93;51.13;;;4.20;99.90;;;;;;5142103;27;20042;-76
2022/01/16 05:55:16;;;;;;;245.35;53.97;;;3.50;99.90;;;;;;5136622;27;20386;-76
2022/01/16 05:57:43;;;;;;;232.57;52.63;;;3.40;99.90;;;;;;5135830;27;20050;-76
2022/01/16 06:00:11;;;;;;;227.57;53.75;;;3.60;99.90;;;;;;5136546;27;20041;-76
2022/01/16 06:02:37;;;;;;;222.45;53.90;;;3.50;99.90;;;;;;5119330;27;20042;-76
2022/01/16 06:05:04;;;;;;;230.43;54.72;;;3.50;99.90;;;;;;5135810;27;20043;-76
2022/01/16 06:07:29;;;;;;;229.48;52.42;;;3.50;99.90;;;;;;5144309;27;20054;-76
2022/01/16 06:09:56;;;;;;;224.00;51.95;;;3.50;99.90;;;;;;5153782;27;20039;-76
2022/01/16 06:12:22;;;;;;;227.90;55.08;;;3.90;99.90;;;;;;5154261;27;20101;-76
2022/01/16 06:14:47;;;;;;;241.52;57.05;;;3.60;99.90;;;;;;5155088;27;20418;-76
2022/01/16 06:17:13;;;;;;;261.90;55.15;;;3.80;99.90;;;;;;5155046;27;20126;-76
2022/01/16 06:19:39;;;;;;;232.57;53.35;;;3.90;99.90;;;;;;5154136;27;20035;-76
2022/01/16 06:22:05;;;;;;;234.73;56.60;;;3.70;99.90;;;;;;5140584;27;20031;-76
2022/01/16 06:24:31;;;;;;;238.90;54.22;;;3.70;99.90;;;;;;5153518;27;20100;-76
2022/01/16 06:26:57;;;;;;;222.35;54.20;;;3.70;99.90;;;;;;5152675;27;20506;-76
2022/01/16 06:29:23;;;;;;;219.82;55.28;;;3.70;99.90;;;;;;5136623;27;20042;-76
2022/01/16 06:31:49;;;;;;;197.45;52.47;;;3.70;99.90;;;;;;5153887;27;20124;-76
2022/01/16 06:34:15;;;;;;;218.15;54.90;;;3.80;99.90;;;;;;5152605;27;20490;-76
2022/01/16 06:36:41;;;;;;;226.75;54.80;;;3.80;99.90;;;;;;5134546;27;20037;-76
2022/01/16 06:39:09;;;;;;;225.07;55.53;;;3.90;99.90;;;;;;5153137;27;20070;-76
2022/01/16 06:41:36;;;;;;;241.18;57.50;;;3.80;99.90;;;;;;5153008;27;20042;-76
2022/01/16 06:44:02;;;;;;;226.35;55.67;;;3.90;99.90;;;;;;5153545;27;20051;-76
2022/01/16 06:46:28;;;;;;;215.40;54.45;;;3.90;99.90;;;;;;5154552;27;20058;-76
2022/01/16 06:48:54;;;;;;;203.30;56.88;;;4.00;99.90;;;;;;5152512;27;20477;-76
2022/01/16 06:51:21;;;;;;;202.20;54.22;;;4.00;99.90;;;;;;5153111;27;20050;-76
2022/01/16 06:53:48;;;;;;;216.88;56.58;;;4.00;99.90;;;;;;5141205;27;20039;-76
2022/01/16 06:56:16;;;;;;;207.77;56.97;;;4.00;99.90;;;;;;5156377;27;20069;-76
2022/01/16 06:58:43;;;;;;;214.70;54.78;;;4.00;99.90;;;;;;5157113;27;20073;-76
2022/01/16 07:01:09;;;;;;;220.82;52.72;;;4.00;99.90;;;;;;5139338;27;20450;-76
2022/01/16 07:03:36;;;;;;;196.63;55.28;;;4.10;99.90;;;;;;5156909;27;20061;-76
2022/01/16 07:06:03;;;;;;;202.20;54.55;;;4.10;99.90;;;;;;5156845;27;20047;-76
2022/01/16 07:08:28;;;;;;;188.20;53.92;;;4.10;99.90;;;;;;5139366;27;20137;-76
2022/01/16 07:10:56;;;;;;;206.45;55.17;;;4.10;99.90;;;;;;5139618;27;20125;-76
2022/01/16 07:13:23;;;;;;;187.88;53.60;;;4.10;99.90;;;;;;5139780;27;20043;-76
2022/01/16 07:15:49;;;;;;;189.73;53.53;;;4.20;99.90;;;;;;5138701;27;20053;-76
2022/01/16 07:18:16;;;;;;;179.15;53.78;;;4.20;99.90;;;;;;5158361;27;20050;-76
2022/01/16 07:20:45;;;;;;;186.27;52.10;;;4.20;99.90;;;;;;5139311;27;20053;-77
2022/01/16 07:23:13;;;;;;;178.43;52.47;;;4.20;99.90;;;;;;5156725;27;20047;-76
2022/01/16 07:25:40;;;;;;;189.20;53.17;;;4.40;99.90;;;;;;5156753;27;20481;-76
2022/01/16 07:28:05;;;;;;;186.48;53.40;;;4.20;99.90;;;;;;5157773;27;20042;-76
2022/01/16 07:30:31;;;;;;;193.93;52.67;;;4.50;99.90;;;;;;5155815;27;20046;-76
2022/01/16 07:32:57;;;;;;;192.13;54.55;;;4.30;99.90;;;;;;5156420;27;20562;-77
2022/01/16 07:35:23;;;;;;;198.52;54.90;;;4.30;99.90;;;;;;5156280;27;20116;-76
2022/01/16 07:37:49;;;;;;;185.30;52.40;;;4.30;99.90;;;;;;5144403;27;20041;-76
2022/01/16 07:40:15;;;;;;;189.57;52.92;;;4.30;99.90;;;;;;5154076;27;20131;-76
2022/01/16 07:42:41;;;;;;;193.95;53.05;;;4.30;99.90;;;;;;5157627;27;20038;-76
2022/01/16 07:45:08;;;;;;;161.25;51.30;;;4.40;99.90;;;;;;5155895;27;20447;-76
2022/01/16 07:47:33;;;;;;;169.25;52.40;;;4.40;99.90;;;;;;5139020;27;20430;-76
2022/01/16 07:49:59;;;;;;;183.85;55.50;;;4.30;99.90;;;;;;5138945;27;20118;-76
2022/01/16 07:52:25;;;;;;;172.05;48.78;;;4.30;99.90;;;;;;5156060;27;20049;-75
2022/01/16 07:54:51;;;;;;;177.90;51.80;;;4.40;99.90;;;;;;5138839;27;20111;-75
2022/01/16 07:57:17;;;;;;;162.43;49.90;;;4.30;99.90;;;;;;5137862;27;20035;-75
2022/01/16 07:59:42;;;;;;;170.48;49.58;;;4.30;99.90;;;;;;5157064;27;20126;-75
2022/01/16 08:02:09;;;;;;;152.23;47.92;;;4.90;99.90;;;;;;5157175;27;20047;-75
2022/01/16 08:04:35;;;;;;;141.45;48.42;;;4.40;99.90;;;;;;5156111;27;20046;-76
2022/01/16 08:07:00;;;;;;;158.38;48.80;;;4.40;99.90;;;;;;5141920;27;20130;-76
2022/01/16 08:09:26;;;;;;;139.73;47.13;;;4.40;99.90;;;;;;5155761;27;20043;-76
2022/01/16 08:11:52;;;;;;;153.60;48.92;;;4.40;99.90;;;;;;5154415;27;20047;-76
2022/01/16 08:14:18;;;;;;;157.25;49.92;;;4.50;99.90;;;;;;5156940;27;20046;-76
2022/01/16 08:16:43;;;;;;;148.95;49.22;;;4.50;99.90;;;;;;5156888;27;20039;-76
2022/01/16 08:19:09;;;;;;;127.93;46.97;;;4.50;99.90;;;;;;5137364;27;20123;-76
2022/01/16 08:21:35;;;;;;;143.20;48.13;;;4.50;99.90;;;;;;5137822;27;20054;-76
2022/01/16 08:24:03;;;;;;;133.90;46.13;;;4.60;99.90;;;;;;5138139;27;20046;-77
2022/01/16 08:26:31;;;;;;;128.18;47.97;;;4.60;99.90;;;;;;5137030;27;20047;-77
2022/01/16 08:28:57;;;;;;;114.00;44.10;;;4.70;99.90;;;;;;5137933;27;20031;-77
2022/01/16 08:31:23;;;;;;;109.38;43.22;;;4.80;99.90;;;;;;5138189;27;20090;-77
2022/01/16 08:33:49;;;;;;;107.25;43.33;;;4.70;99.90;;;;;;5137255;27;20490;-77
2022/01/16 08:36:15;;;;;;;107.53;43.28;;;4.90;99.90;;;;;;5120497;27;20075;-77
2022/01/16 08:38:41;;;;;;;94.93;40.70;;;4.80;99.90;;;;;;5154951;27;20038;-77
2022/01/16 08:41:07;;;;;;;95.63;39.28;;;4.90;99.90;;;;;;5154379;27;20042;-77
2022/01/16 08:43:33;;;;;;;83.57;37.55;;;4.90;99.90;;;;;;5154921;27;20042;-77
2022/01/16 08:45:59;;;;;;;70.90;34.13;;;4.90;99.90;;;;;;5154810;27;20064;-77
2022/01/16 08:48:25;;;;;;;64.38;33.10;;;5.00;99.90;;;;;;5155517;27;20050;-77
2022/01/16 08:50:51;;;;;;;71.10;32.78;;;5.10;99.90;;;;;;5154953;27;20051;-76
2022/01/16 08:53:16;;;;;;;60.58;30.38;;;5.20;99.90;;;;;;5140136;27;20049;-76
2022/01/16 08:55:42;;;;;;;56.25;30.05;;;5.20;99.90;;;;;;5155146;27;20118;-77
2022/01/16 08:58:08;;;;;;;57.50;31.33;;;5.30;99.90;;;;;;5137442;27;20043;-77
2022/01/16 09:00:34;;;;;;;52.63;30.15;;;5.30;99.90;;;;;;5136314;27;20039;-76
2022/01/16 09:02:59;;;;;;;50.03;27.67;;;5.40;99.90;;;;;;5156042;27;20042;-77
2022/01/16 09:05:26;;;;;;;52.90;26.27;;;5.50;99.90;;;;;;5155839;27;20538;-77
2022/01/16 09:07:52;;;;;;;41.17;25.90;;;5.50;99.90;;;;;;5147427;27;20046;-77
2022/01/16 09:10:18;;;;;;;47.25;25.73;;;5.60;99.90;;;;;;5155766;27;20122;-77
2022/01/16 09:12:44;;;;;;;46.90;23.60;;;5.70;99.90;;;;;;5155312;27;20035;-77
2022/01/16 09:15:11;;;;;;;47.08;25.10;;;5.70;99.90;;;;;;5147165;27;20414;-77
2022/01/16 09:17:39;;;;;;;45.10;26.02;;;5.70;99.90;;;;;;5155557;27;20046;-76
2022/01/16 09:20:06;;;;;;;43.92;25.13;;;5.80;99.90;;;;;;5155154;27;20099;-76
2022/01/16 09:22:32;;;;;;;39.80;23.90;;;5.80;99.90;;;;;;5144032;27;20051;-77
2022/01/16 09:24:58;;;;;;;48.85;24.55;;;5.90;99.90;;;;;;5154186;27;20043;-77
2022/01/16 09:27:24;;;;;;;42.35;23.33;;;5.90;99.90;;;;;;5155661;27;20099;-76
2022/01/16 09:29:49;;;;;;;38.92;23.45;;;5.90;99.90;;;;;;5153358;27;20078;-76
2022/01/16 09:32:16;;;;;;;38.83;24.13;;;6.00;99.90;;;;;;5154222;27;20046;-77
2022/01/16 09:34:42;;;;;;;45.85;23.50;;;6.10;99.90;;;;;;5154529;27;20049;-77
2022/01/16 09:37:09;;;;;;;47.30;24.38;;;6.00;99.90;;;;;;5136871;27;20054;-76
2022/01/16 09:39:39;;;;;;;48.10;22.98;;;6.10;99.90;;;;;;5152253;27;20042;-76
2022/01/16 09:42:09;;;;;;;44.03;21.85;;;6.10;99.90;;;;;;5141759;27;20053;-77
2022/01/16 09:44:40;;;;;;;41.47;20.42;;;6.20;99.90;;;;;;5121763;27;20049;-77
2022/01/16 09:47:07;;;;;;;37.67;21.85;;;6.10;99.90;;;;;;5138055;27;20047;-77
2022/01/16 09:49:33;;;;;;;40.58;22.27;;;6.20;99.90;;;;;;5139932;27;20443;-76
2022/01/16 09:51:58;;;;;;;35.47;20.40;;;6.20;99.90;;;;;;5120055;27;20047;-76
2022/01/16 09:54:25;;;;;;;43.35;20.73;;;6.20;99.90;;;;;;5138625;27;20057;-77
2022/01/16 09:56:51;;;;;;;34.97;18.42;;;6.30;99.90;;;;;;5122222;27;20050;-77
2022/01/16 09:59:17;;;;;;;42.38;21.02;;;6.30;99.90;;;;;;5137446;27;20551;-77
2022/01/16 10:01:43;;;;;;;35.83;20.13;;;6.30;99.90;;;;;;5139728;27;20031;-77
2022/01/16 10:04:28;;;;;;;41.33;19.88;;;6.50;99.90;;;;;;5139536;27;20535;-77
2022/01/16 10:06:54;;;;;;;;;;;6.30;99.90;;;;;;5137782;27;20043;-77
2022/01/16 10:09:20;;;;;;;35.95;19.10;;;6.30;99.90;;;;;;5136118;27;19954;-77
2022/01/16 10:11:56;;;;;;;32.25;18.90;;;6.30;99.90;;;;;;5124255;27;20078;-77
2022/01/16 10:14:36;;;;;;;39.35;19.17;;;6.30;99.90;;;;;;5100132;27;20071;-77
2022/01/16 10:17:10;;;;;;;37.00;18.95;;;6.40;99.90;;;;;;5120676;27;20044;-77
2022/01/16 10:19:37;;;;;;;30.43;16.00;;;6.40;99.90;;;;;;5128767;27;20047;-77
2022/01/16 10:22:07;;;;;;;38.97;17.58;;;6.40;99.90;;;;;;5154791;27;20288;-77
2022/01/16 10:24:34;;;;;;;34.80;18.08;;;6.40;99.90;;;;;;5154932;27;20047;-77
2022/01/16 10:27:09;;;;;;;34.28;17.15;;;6.40;99.90;;;;;;5129944;27;20043;-77
2022/01/16 10:29:57;;;;;;;36.78;17.55;;;6.40;99.90;;;;;;5146789;27;20532;-77
2022/01/16 10:32:26;;;;;;;29.00;15.25;;;6.50;99.90;;;;;;5156909;27;20086;-77
2022/01/16 10:35:06;;;;;;;34.45;15.57;;;6.50;99.90;;;;;;5137911;27;20035;-77
2022/01/16 10:37:32;;;;;;;30.73;14.48;;;6.50;99.90;;;;;;5141167;27;20043;-77
2022/01/16 10:40:02;;;;;;;25.48;13.27;;;6.50;99.90;;;;;;5141016;27;20119;-77
2022/01/16 10:42:30;;;;;;;25.13;13.60;;;6.90;99.90;;;;;;5144497;27;20570;-77
2022/01/16 10:45:00;;;;;;;26.58;13.18;;;6.60;99.90;;;;;;5143208;27;20108;-77
2022/01/16 10:47:35;;;;;;;27.45;13.20;;;6.60;99.90;;;;;;5156828;27;20521;-77
2022/01/16 10:50:11;;;;;;;25.45;12.40;;;6.60;99.90;;;;;;5138128;27;20030;-77
2022/01/16 10:53:07;;;;;;;30.30;12.50;;;6.60;99.90;;;;;;5143306;27;20042;-77
2022/01/16 10:55:37;;;;;;;32.28;11.52;;;6.60;99.90;;;;;;5110740;27;20119;-77
2022/01/16 10:58:20;;;;;;;25.60;11.88;;;6.60;99.90;;;;;;5124895;27;20041;-77
2022/01/16 11:01:13;;;;;;;26.55;12.18;;;6.60;99.90;;;;;;5151562;27;20075;-77
2022/01/16 11:03:47;;;;;;;31.52;11.32;;;6.60;99.90;;;;;;5131471;27;20051;-77
2022/01/16 11:06:14;;;;;;;26.15;10.32;;;6.60;99.90;;;;;;5134570;27;20442;-77
2022/01/16 11:08:40;;;;;;;25.73;9.38;;;6.60;99.90;;;;;;5121105;27;20053;-77
2022/01/16 11:11:07;;;;;;;23.88;9.75;;;6.60;99.90;;;;;;5142775;27;20034;-76
2022/01/16 11:13:35;;;;;;;22.75;9.40;;;6.60;99.90;;;;;;5140781;27;20047;-76
2022/01/16 11:16:11;;;;;;;26.45;9.15;;;6.60;99.90;;;;;;5155945;27;20550;-77
2022/01/16 11:18:40;;;;;;;28.27;8.73;;;6.70;99.90;;;;;;5154793;27;20132;-77
2022/01/16 11:26:16;;;;;;;24.23;7.75;;;6.70;99.90;;;;;;5128035;27;20057;-77
2022/01/16 11:28:42;;;;;;;23.65;7.68;;;6.70;99.90;;;;;;5141288;27;20065;-77
2022/01/16 11:31:11;;;;;;;19.20;7.90;;;6.70;99.90;;;;;;5156481;27;20122;-77
2022/01/16 11:33:39;;;;;;;26.90;9.05;;;6.70;99.90;;;;;;5157440;27;20505;-77
2022/01/16 11:36:17;;;;;;;23.27;8.23;;;6.70;99.90;;;;;;5142657;27;20039;-77
2022/01/16 11:38:51;;;;;;;24.83;8.57;;;6.80;99.90;;;;;;5140204;27;20042;-77
2022/01/16 11:41:23;;;;;;;26.85;7.47;;;6.80;99.90;;;;;;5140952;27;20051;-78
2022/01/16 11:43:51;;;;;;;23.25;7.80;;;6.70;99.90;;;;;;5124012;27;20125;-77
2022/01/16 11:46:24;;;;;;;20.52;7.55;;;6.80;99.90;;;;;;5155968;27;20047;-77
2022/01/16 11:48:59;;;;;;;24.40;8.48;;;6.80;99.90;;;;;;5148233;27;20042;-77
2022/01/16 11:51:34;;;;;;;22.42;7.68;;;6.80;99.90;;;;;;5121388;27;20155;-78
2022/01/16 11:54:09;;;;;;;17.65;7.30;;;6.80;99.90;;;;;;5120420;27;20057;-77
2022/01/16 11:56:38;;;;;;;20.00;7.68;;;6.80;99.90;;;;;;5121799;27;20072;-77
2022/01/16 11:59:21;;;;;;;21.73;7.75;;;6.90;99.90;;;;;;5140142;27;20051;-77
2022/01/16 12:02:00;;;;;;;26.42;8.23;;;6.90;99.90;;;;;;5156170;27;20038;-77
2022/01/16 12:04:29;;;;;;;28.42;8.35;;;6.90;99.90;;;;;;5156084;27;20042;-77
2022/01/16 12:07:17;;;;;;;15.88;7.55;;;6.90;99.90;;;;;;5142952;27;20082;-77
2022/01/16 12:12:11;;;;;;;16.98;6.85;;;7.00;99.90;;;;;;5139195;27;20126;-76
2022/01/16 12:14:58;;;;;;;15.93;6.80;;;7.00;99.90;;;;;;5117635;27;20078;-76
2022/01/16 12:17:41;;;;;;;20.10;7.35;;;7.00;99.90;;;;;;5155164;27;20050;-77
2022/01/16 12:22:59;;;;;;;17.27;7.43;;;7.00;99.90;;;;;;5117802;27;20057;-76
2022/01/16 12:25:40;;;;;;;16.52;7.95;;;7.00;99.90;;;;;;5119403;27;20058;-76
2022/01/16 12:28:08;;;;;;;17.10;6.80;;;7.00;99.90;;;;;;5122105;27;20035;-77
2022/01/16 12:30:35;;;;;;;19.33;7.03;;;7.10;99.90;;;;;;5149924;27;20046;-77
2022/01/16 12:33:15;;;;;;;16.00;6.97;;;7.10;99.90;;;;;;5155660;27;20073;-77
2022/01/16 12:35:41;;;;;;;13.30;7.30;;;7.10;99.90;;;;;;5129589;27;20386;-77
2022/01/16 12:38:14;;;;;;;25.05;7.07;;;7.10;99.90;;;;;;5140164;27;20043;-77
2022/01/16 12:40:44;;;;;;;18.10;6.47;;;7.00;99.90;;;;;;5135851;27;20038;-76
2022/01/16 12:43:15;;;;;;;18.48;8.10;;;7.10;99.90;;;;;;5125608;27;20050;-77
2022/01/16 12:45:42;;;;;;;17.65;7.15;;;7.10;99.90;;;;;;5154033;27;20089;-77
2022/01/16 12:48:09;;;;;;;17.60;7.50;;;7.10;99.90;;;;;;5156085;27;20050;-77
2022/01/16 12:50:37;;;;;;;19.50;6.80;;;7.10;99.90;;;;;;5127724;27;20039;-77
2022/01/16 12:53:03;;;;;;;23.00;8.02;;;7.10;99.90;;;;;;5136688;27;20043;-77
2022/01/16 12:55:34;;;;;;;21.10;7.30;;;7.10;99.90;;;;;;5131389;27;20130;-77
2022/01/16 12:58:17;;;;;;;17.65;6.85;;;7.10;99.90;;;;;;5121911;27;20071;-77
2022/01/16 13:01:05;;;;;;;18.77;7.68;;;7.10;99.90;;;;;;5141400;27;20402;-77
2022/01/16 13:03:33;;;;;;;18.02;6.38;;;7.10;99.90;;;;;;5132198;27;20462;-77
2022/01/16 13:06:26;;;;;;;25.20;7.07;;;7.10;99.90;;;;;;5138667;27;20077;-77
2022/01/16 13:08:58;;;;;;;15.90;6.18;;;7.10;99.90;;;;;;5124792;27;20052;-77
2022/01/16 13:11:39;;;;;;;13.50;5.63;;;7.00;99.90;;;;;;5127414;27;20450;-77
2022/01/16 13:14:10;;;;;;;19.20;7.40;;;7.10;99.90;;;;;;5141317;27;20041;-77
2022/01/16 13:16:39;;;;;;;24.05;6.53;;;7.00;99.90;;;;;;5152266;27;20398;-76
2022/01/16 13:19:08;;;;;;;16.02;7.47;;;7.00;99.90;;;;;;5146623;27;20034;-77
2022/01/16 13:21:47;;;;;;;16.20;6.93;;;7.10;99.90;;;;;;5142886;27;20073;-76
2022/01/16 13:24:43;;;;;;;16.27;6.40;;;7.00;99.90;;;;;;5120610;27;20046;-77
2022/01/16 13:27:21;;;;;;;17.15;5.90;;;7.10;99.90;;;;;;5120355;27;20122;-77
2022/01/16 13:29:51;;;;;;;14.13;6.53;;;7.10;99.90;;;;;;5133499;27;20105;-78
2022/01/16 13:32:20;;;;;;;21.00;7.38;;;7.10;99.90;;;;;;5154661;27;20050;-78
2022/01/16 13:34:54;;;;;;;19.02;6.57;;;7.10;99.90;;;;;;5125416;27;20043;-77
2022/01/16 13:37:20;;;;;;;19.90;6.93;;;7.10;99.90;;;;;;5134149;27;20448;-77
2022/01/16 13:39:51;;;;;;;15.55;6.47;;;7.10;99.90;;;;;;5116189;28;20100;-77